Time;durP1;ratioP1;P1;durP2;ratioP2;P2;SDS_P1;SDS_P2;PMS_P1;PMS_P2;Temp;Humidity;BMP_temperature;BMP_pressure;BME280_temperature;BME280_humidity;BME280_pressure;Samples;Min_cycle;Max_cycle;Signal;HPM_P1;HPM_P2
2021/01/04 00:00:38;;;;;;;39.07;25.77;;;3.80;99.90;;;;;;5094117;28;20218;-42
2021/01/04 00:03:28;;;;;;;33.58;25.50;;;3.90;99.90;;;;;;5093902;28;20696;-41
2021/01/04 00:06:04;;;;;;;41.92;28.02;;;4.00;99.90;;;;;;5094010;28;20298;-42
2021/01/04 00:09:03;;;;;;;38.63;26.67;;;4.00;99.90;;;;;;5094000;28;20232;-42
2021/01/04 00:11:41;;;;;;;38.97;26.27;;;4.00;99.90;;;;;;5093906;28;20274;-43
2021/01/04 00:14:23;;;;;;;43.42;27.48;;;4.00;99.90;;;;;;5094102;28;20617;-42
2021/01/04 00:17:02;;;;;;;39.92;27.23;;;4.00;99.90;;;;;;5093839;28;20575;-42
2021/01/04 00:19:38;;;;;;;39.15;26.10;;;4.00;99.90;;;;;;5093986;28;20210;-42
2021/01/04 00:22:14;;;;;;;43.03;27.33;;;3.80;99.90;;;;;;5093845;28;20240;-43
2021/01/04 00:24:48;;;;;;;39.92;26.13;;;3.90;99.90;;;;;;5093698;28;20284;-41
2021/01/04 00:27:26;;;;;;;57.60;40.08;;;3.80;99.90;;;;;;5093602;28;20306;-42
2021/01/04 00:29:58;;;;;;;37.83;26.75;;;3.80;99.90;;;;;;5093609;28;20213;-42
2021/01/04 00:32:33;;;;;;;36.45;25.90;;;3.80;99.90;;;;;;5093404;28;20692;-41
2021/01/04 00:35:07;;;;;;;42.45;27.13;;;3.80;99.90;;;;;;5093574;28;20237;-41
2021/01/04 00:38:12;;;;;;;35.42;24.02;;;3.80;99.90;;;;;;5093286;28;20289;-41
2021/01/04 00:41:04;;;;;;;39.78;24.38;;;3.90;99.90;;;;;;5093461;28;20285;-42
2021/01/04 00:43:39;;;;;;;37.38;24.55;;;3.90;99.90;;;;;;5093169;28;20527;-41
2021/01/04 00:46:12;;;;;;;34.85;22.75;;;3.90;99.90;;;;;;5093234;28;20210;-41
2021/01/04 00:48:47;;;;;;;43.47;26.40;;;3.90;99.90;;;;;;5093089;28;20538;-41
2021/01/04 00:51:29;;;;;;;36.28;23.77;;;3.90;99.90;;;;;;5093058;28;20249;-41
2021/01/04 00:53:57;;;;;;;34.47;22.95;;;3.90;99.90;;;;;;5092978;28;20207;-41
2021/01/04 00:56:37;;;;;;;36.00;24.30;;;3.90;99.90;;;;;;5093029;28;20214;-41
2021/01/04 00:59:10;;;;;;;37.25;25.13;;;3.90;99.90;;;;;;5093072;28;20220;-42
2021/01/04 01:02:02;;;;;;;35.63;23.70;;;3.90;99.90;;;;;;5092984;28;20255;-40
2021/01/04 01:04:38;;;;;;;35.92;23.75;;;3.90;99.90;;;;;;5092905;28;20298;-42
2021/01/04 01:07:11;;;;;;;34.50;23.23;;;3.90;99.90;;;;;;5092865;28;20580;-42
2021/01/04 01:09:42;;;;;;;36.23;24.53;;;3.90;99.90;;;;;;5092844;28;20219;-42
2021/01/04 01:12:28;;;;;;;34.50;25.93;;;3.90;99.90;;;;;;5092001;28;20262;-40
2021/01/04 01:15:13;;;;;;;38.30;24.10;;;3.90;99.90;;;;;;5092667;28;20335;-40
2021/01/04 01:18:07;;;;;;;36.92;23.40;;;3.90;99.90;;;;;;5092623;28;20206;-41
2021/01/04 01:20:37;;;;;;;38.55;23.33;;;3.90;99.90;;;;;;5092148;28;20638;-41
2021/01/04 01:23:06;;;;;;;36.50;24.02;;;3.90;99.90;;;;;;5092235;28;20280;-41
2021/01/04 01:25:41;;;;;;;36.65;23.88;;;3.90;99.90;;;;;;5092222;28;20267;-41
2021/01/04 01:28:42;;;;;;;33.10;21.95;;;3.90;99.90;;;;;;5092410;28;20259;-42
2021/01/04 01:31:37;;;;;;;34.05;23.88;;;3.90;99.90;;;;;;5092100;28;20241;-42
2021/01/04 01:34:18;;;;;;;36.22;22.90;;;3.90;99.90;;;;;;5092285;28;20207;-41
2021/01/04 01:37:16;;;;;;;34.67;21.20;;;3.90;99.90;;;;;;5092329;28;20210;-42
2021/01/04 01:40:21;;;;;;;33.63;24.17;;;3.90;99.90;;;;;;5092077;28;20580;-41
2021/01/04 01:43:18;;;;;;;32.88;22.98;;;3.90;99.90;;;;;;5091856;28;20733;-40
2021/01/04 01:45:54;;;;;;;32.35;22.33;;;3.90;99.90;;;;;;5092117;28;20242;-41
2021/01/04 01:48:40;;;;;;;33.00;22.70;;;3.90;99.90;;;;;;5091991;28;20245;-41
2021/01/04 01:51:16;;;;;;;33.53;21.33;;;3.90;99.90;;;;;;5092234;28;20289;-41
2021/01/04 01:53:53;;;;;;;31.23;20.08;;;3.90;99.90;;;;;;5092041;28;20635;-41
2021/01/04 01:56:27;;;;;;;32.00;21.42;;;3.80;99.90;;;;;;5091749;28;20234;-40
2021/01/04 01:59:10;;;;;;;30.35;19.02;;;3.80;99.90;;;;;;5091812;28;20202;-41
2021/01/04 02:01:43;;;;;;;26.13;18.17;;;3.80;99.90;;;;;;5091904;28;20736;-41
2021/01/04 02:04:21;;;;;;;26.50;19.52;;;3.80;99.90;;;;;;5091857;28;20230;-41
2021/01/04 02:07:06;;;;;;;27.13;19.27;;;3.80;99.90;;;;;;5091806;28;20287;-42
2021/01/04 02:09:38;;;;;;;25.95;19.05;;;3.80;99.90;;;;;;5091688;28;20206;-40
2021/01/04 02:12:12;;;;;;;26.08;19.15;;;3.80;99.90;;;;;;5091602;28;20307;-40
2021/01/04 02:14:48;;;;;;;24.77;17.98;;;3.80;99.90;;;;;;5091975;28;20313;-41
2021/01/04 02:17:27;;;;;;;27.30;18.53;;;3.80;99.90;;;;;;5091773;28;20206;-41
2021/01/04 02:20:22;;;;;;;24.42;18.23;;;3.70;99.90;;;;;;5091786;28;20412;-41
2021/01/04 02:23:15;;;;;;;23.83;17.20;;;3.70;99.90;;;;;;5091987;28;20310;-41
2021/01/04 02:25:46;;;;;;;27.17;18.50;;;3.70;99.90;;;;;;5093536;28;20214;-41
2021/01/04 02:28:18;;;;;;;25.30;18.35;;;3.70;99.90;;;;;;5095934;28;20293;-44
2021/01/04 02:30:46;;;;;;;26.98;19.15;;;3.70;99.90;;;;;;5095467;28;20732;-40
2021/01/04 02:33:16;;;;;;;24.85;16.33;;;3.70;99.90;;;;;;5095439;28;20211;-41
2021/01/04 02:35:43;;;;;;;20.20;15.75;;;3.70;99.90;;;;;;5095528;28;20700;-41
2021/01/04 02:38:11;;;;;;;22.20;17.47;;;3.70;99.90;;;;;;5095318;28;20297;-41
2021/01/04 02:40:38;;;;;;;28.05;19.20;;;3.70;99.90;;;;;;5095440;28;20202;-42
2021/01/04 02:43:06;;;;;;;25.92;17.10;;;3.60;99.90;;;;;;5095402;28;20704;-41
2021/01/04 02:45:33;;;;;;;23.98;17.00;;;3.60;99.90;;;;;;5095419;28;20325;-41
2021/01/04 02:48:34;;;;;;;25.25;18.02;;;3.60;99.90;;;;;;5095313;28;20213;-41
2021/01/04 02:51:09;;;;;;;21.73;16.83;;;3.60;99.90;;;;;;5095423;28;20665;-42
2021/01/04 02:53:51;;;;;;;29.27;18.00;;;3.60;99.90;;;;;;5095377;28;20226;-41
2021/01/04 02:56:26;;;;;;;21.27;16.83;;;3.70;99.90;;;;;;5095199;28;20206;-41
2021/01/04 02:59:03;;;;;;;23.20;16.70;;;3.70;99.90;;;;;;5095001;28;20233;-41
2021/01/04 03:01:43;;;;;;;21.63;16.10;;;3.80;99.90;;;;;;5095103;28;20253;-41
2021/01/04 03:04:11;;;;;;;25.55;17.00;;;3.70;99.90;;;;;;5094897;28;20226;-41
2021/01/04 03:06:47;;;;;;;25.70;17.33;;;3.80;99.90;;;;;;5094877;28;20637;-42
2021/01/04 03:09:15;;;;;;;21.40;16.88;;;3.80;99.90;;;;;;5095024;28;20260;-42
2021/01/04 03:11:42;;;;;;;24.33;17.42;;;3.80;99.90;;;;;;5094955;28;20234;-41
2021/01/04 03:14:24;;;;;;;24.37;17.30;;;3.80;99.90;;;;;;5095034;28;20620;-42
2021/01/04 03:16:59;;;;;;;22.97;16.73;;;3.80;99.90;;;;;;5095083;28;20255;-41
2021/01/04 03:19:32;;;;;;;21.40;16.53;;;3.90;99.90;;;;;;5094973;28;20218;-42
2021/01/04 03:22:03;;;;;;;23.33;16.10;;;3.90;99.90;;;;;;5094672;28;20206;-42
2021/01/04 03:24:30;;;;;;;22.30;16.25;;;3.90;99.90;;;;;;5094993;28;20288;-43
2021/01/04 03:27:01;;;;;;;25.52;17.10;;;3.90;99.90;;;;;;5094775;28;20300;-41
2021/01/04 03:29:29;;;;;;;23.55;17.67;;;4.00;99.90;;;;;;5094778;28;20265;-42
2021/01/04 03:31:56;;;;;;;29.77;18.33;;;3.90;99.90;;;;;;5094640;28;20217;-41
2021/01/04 03:34:24;;;;;;;24.30;17.27;;;4.00;99.90;;;;;;5094095;28;20763;-42
2021/01/04 03:36:51;;;;;;;23.67;18.02;;;4.00;99.90;;;;;;5094737;28;20237;-42
2021/01/04 03:39:18;;;;;;;23.65;17.38;;;4.10;99.90;;;;;;5094746;28;20209;-41
2021/01/04 03:41:45;;;;;;;26.30;18.77;;;4.10;99.90;;;;;;5094423;28;20314;-42
2021/01/04 03:44:12;;;;;;;26.03;18.83;;;4.00;99.90;;;;;;5094339;28;20295;-44
2021/01/04 03:46:45;;;;;;;23.57;18.60;;;4.10;99.90;;;;;;5094492;28;20268;-43
2021/01/04 03:49:12;;;;;;;27.17;17.47;;;4.10;99.90;;;;;;5094283;28;20206;-42
2021/01/04 03:51:39;;;;;;;23.57;18.10;;;4.10;99.90;;;;;;5094542;28;20634;-42
2021/01/04 03:54:06;;;;;;;27.30;18.20;;;4.10;99.90;;;;;;5094258;28;20361;-42
2021/01/04 03:56:33;;;;;;;29.30;19.50;;;4.20;99.90;;;;;;5094101;28;20211;-42
2021/01/04 03:59:00;;;;;;;29.45;19.50;;;4.20;99.90;;;;;;5094159;28;20256;-42
2021/01/04 04:01:28;;;;;;;25.00;18.00;;;4.20;99.90;;;;;;5094084;28;20211;-42
2021/01/04 04:03:56;;;;;;;30.55;19.00;;;4.20;99.90;;;;;;5094872;28;20273;-42
2021/01/04 04:06:26;;;;;;;26.38;19.65;;;4.20;99.90;;;;;;5094235;28;20382;-42
2021/01/04 04:08:53;;;;;;;23.13;18.33;;;4.10;99.90;;;;;;5094154;28;20575;-42
2021/01/04 04:11:21;;;;;;;26.02;18.92;;;4.10;99.90;;;;;;5093591;28;20700;-42
2021/01/04 04:13:48;;;;;;;29.20;19.40;;;4.10;99.90;;;;;;5093895;28;20229;-42
2021/01/04 04:16:15;;;;;;;24.75;18.67;;;4.10;99.90;;;;;;5093837;28;20538;-41
2021/01/04 04:18:42;;;;;;;23.67;18.45;;;4.10;99.90;;;;;;5093971;28;20203;-42
2021/01/04 04:21:14;;;;;;;29.40;18.50;;;4.10;99.90;;;;;;5093737;28;20276;-42
2021/01/04 04:23:41;;;;;;;24.15;16.90;;;4.10;99.90;;;;;;5093775;28;20231;-42
2021/01/04 04:26:15;;;;;;;29.15;19.48;;;4.10;99.90;;;;;;5093625;28;20210;-42
2021/01/04 04:28:42;;;;;;;29.02;19.02;;;4.20;99.90;;;;;;5093525;28;20293;-41
2021/01/04 04:31:11;;;;;;;27.40;18.80;;;4.20;99.90;;;;;;5093687;28;20209;-41
2021/01/04 04:33:38;;;;;;;26.85;18.52;;;4.20;99.90;;;;;;5093384;28;20254;-42
2021/01/04 04:36:06;;;;;;;26.77;19.40;;;4.30;99.90;;;;;;5093830;28;20217;-43
2021/01/04 04:38:34;;;;;;;25.73;17.77;;;4.30;99.90;;;;;;5093463;28;20416;-41
2021/01/04 04:41:01;;;;;;;25.42;17.67;;;4.20;99.90;;;;;;5093064;28;20268;-41
2021/01/04 04:43:36;;;;;;;24.17;19.03;;;4.20;99.90;;;;;;5093259;28;20693;-41
2021/01/04 04:46:07;;;;;;;25.80;18.30;;;4.20;99.90;;;;;;5092461;28;20206;-42
2021/01/04 04:48:44;;;;;;;20.97;16.50;;;4.20;99.90;;;;;;5093148;28;20709;-41
2021/01/04 04:51:34;;;;;;;24.65;17.60;;;4.20;99.90;;;;;;5093245;28;20210;-40
2021/01/04 04:54:15;;;;;;;23.43;17.87;;;4.20;99.90;;;;;;5085456;28;20207;-41
2021/01/04 04:57:01;;;;;;;24.60;18.37;;;4.10;99.90;;;;;;5093232;28;20310;-43
2021/01/04 04:59:42;;;;;;;23.70;19.27;;;4.10;99.90;;;;;;5093090;28;20626;-43
2021/01/04 05:02:13;;;;;;;29.30;18.95;;;4.10;99.90;;;;;;5092803;28;20211;-42
2021/01/04 05:05:06;;;;;;;26.80;20.37;;;4.10;99.90;;;;;;5092820;28;20234;-42
2021/01/04 05:07:44;;;;;;;23.35;17.95;;;4.00;99.90;;;;;;5092851;28;20216;-46
2021/01/04 05:10:16;;;;;;;23.67;17.05;;;4.00;99.90;;;;;;5092449;28;20298;-48
2021/01/04 05:12:56;;;;;;;25.52;19.30;;;4.00;99.90;;;;;;5092773;28;20290;-45
2021/01/04 05:15:49;;;;;;;25.00;19.38;;;4.00;99.90;;;;;;5092861;28;20309;-47
2021/01/04 05:18:48;;;;;;;24.10;17.87;;;3.90;99.90;;;;;;5092655;28;20252;-46
2021/01/04 05:21:47;;;;;;;24.67;17.88;;;3.80;99.90;;;;;;5092450;28;20618;-48
2021/01/04 05:24:39;;;;;;;24.27;17.83;;;3.80;99.90;;;;;;5092522;28;20321;-45
2021/01/04 05:27:36;;;;;;;23.35;18.10;;;3.80;99.90;;;;;;5092376;28;20636;-47
2021/01/04 05:30:22;;;;;;;23.88;17.90;;;3.90;99.90;;;;;;5092413;28;20248;-45
2021/01/04 05:33:20;;;;;;;24.65;18.77;;;3.90;99.90;;;;;;5092465;28;20243;-46
2021/01/04 05:35:52;;;;;;;25.83;18.97;;;3.90;99.90;;;;;;5092306;28;20297;-50
2021/01/04 05:38:26;;;;;;;21.85;17.75;;;3.80;99.90;;;;;;5092548;28;20272;-47
2021/01/04 05:41:28;;;;;;;30.17;19.70;;;3.90;99.90;;;;;;5092366;28;20381;-46
2021/01/04 05:44:09;;;;;;;24.27;18.33;;;3.90;99.90;;;;;;5090045;28;20261;-49
2021/01/04 05:46:45;;;;;;;26.75;18.55;;;3.90;99.90;;;;;;5092366;28;20212;-46
2021/01/04 05:49:23;;;;;;;26.87;19.27;;;3.90;99.90;;;;;;5092263;28;20627;-48
2021/01/04 05:51:51;;;;;;;24.50;18.58;;;3.90;99.90;;;;;;5092220;28;20241;-45
2021/01/04 05:54:27;;;;;;;27.73;19.43;;;3.90;99.90;;;;;;5092052;28;20207;-41
2021/01/04 05:57:04;;;;;;;27.83;19.48;;;3.90;99.90;;;;;;5091929;28;20297;-41
2021/01/04 05:59:32;;;;;;;22.67;18.23;;;3.90;99.90;;;;;;5092122;28;20245;-40
2021/01/04 06:02:04;;;;;;;23.83;18.13;;;3.90;99.90;;;;;;5091860;28;20745;-43
2021/01/04 06:04:32;;;;;;;25.27;20.97;;;3.90;99.90;;;;;;5091923;28;20768;-41
2021/01/04 06:07:05;;;;;;;27.42;18.52;;;3.90;99.90;;;;;;5092014;28;20296;-51
2021/01/04 06:09:33;;;;;;;23.60;18.88;;;3.90;99.90;;;;;;5091884;28;20290;-42
2021/01/04 06:12:15;;;;;;;25.47;19.73;;;3.80;99.90;;;;;;5091588;28;20234;-42
2021/01/04 06:14:43;;;;;;;30.10;20.30;;;3.90;99.90;;;;;;5091753;28;20616;-42
2021/01/04 06:17:28;;;;;;;26.43;19.80;;;3.90;99.90;;;;;;5091696;28;20301;-41
2021/01/04 06:20:00;;;;;;;23.73;18.50;;;3.90;99.90;;;;;;5091589;28;20207;-40
2021/01/04 06:22:30;;;;;;;24.27;19.47;;;3.80;99.90;;;;;;5091629;28;20675;-41
2021/01/04 06:25:05;;;;;;;27.35;19.65;;;3.80;99.90;;;;;;5091552;28;20256;-41
2021/01/04 06:27:37;;;;;;;26.83;21.30;;;3.80;99.90;;;;;;5091466;28;20206;-42
2021/01/04 06:30:34;;;;;;;24.63;19.42;;;3.80;99.90;;;;;;5091601;28;20211;-43
2021/01/04 06:33:09;;;;;;;28.07;19.93;;;3.80;99.90;;;;;;5056825;28;20211;-48
2021/01/04 06:35:36;;;;;;;24.13;19.17;;;3.70;99.90;;;;;;5091671;28;20628;-42
2021/01/04 06:38:05;;;;;;;24.42;18.95;;;3.60;99.90;;;;;;5091734;28;20246;-45
2021/01/04 06:40:36;;;;;;;23.02;17.75;;;3.60;99.90;;;;;;5091559;28;20234;-41
2021/01/04 06:43:19;;;;;;;25.42;19.63;;;3.60;99.90;;;;;;5091582;28;20572;-42
2021/01/04 06:46:04;;;;;;;24.25;19.05;;;3.60;99.90;;;;;;5091434;28;20286;-42
2021/01/04 06:48:40;;;;;;;27.83;20.05;;;3.60;99.90;;;;;;5091544;28;20676;-41
2021/01/04 06:51:26;;;;;;;25.30;20.38;;;3.60;99.90;;;;;;5090917;28;20203;-42
2021/01/04 06:54:33;;;;;;;25.80;19.92;;;3.70;99.90;;;;;;5090849;28;20199;-41
2021/01/04 06:57:39;;;;;;;29.95;20.90;;;3.60;99.90;;;;;;5075737;28;20233;-42
2021/01/04 07:00:25;;;;;;;28.80;20.53;;;3.60;99.90;;;;;;5091176;28;20206;-42
2021/01/04 07:03:31;;;;;;;29.27;20.75;;;3.60;99.90;;;;;;5091349;28;20683;-41
2021/01/04 07:06:30;;;;;;;29.07;20.57;;;3.60;99.90;;;;;;5091093;28;20691;-40
2021/01/04 07:09:32;;;;;;;28.07;22.03;;;3.60;99.90;;;;;;5091588;28;20298;-40
2021/01/04 07:12:04;;;;;;;31.35;23.00;;;3.70;99.90;;;;;;5094998;28;20578;-40
2021/01/04 07:14:57;;;;;;;29.10;22.10;;;3.60;99.90;;;;;;5095118;28;20544;-40
2021/01/04 07:17:43;;;;;;;28.05;21.50;;;3.70;99.90;;;;;;5095027;28;20203;-42
2021/01/04 07:20:29;;;;;;;27.43;21.37;;;3.70;99.90;;;;;;5095064;28;20679;-42
2021/01/04 07:23:17;;;;;;;28.35;22.08;;;3.80;99.90;;;;;;5094802;28;20242;-41
2021/01/04 07:25:56;;;;;;;28.97;23.27;;;3.80;99.90;;;;;;5094845;28;20736;-42
2021/01/04 07:28:41;;;;;;;31.08;23.00;;;3.80;99.90;;;;;;5095099;28;20244;-45
2021/01/04 07:31:10;;;;;;;28.80;22.67;;;3.80;99.90;;;;;;5095307;28;20267;-45
2021/01/04 07:33:45;;;;;;;30.58;21.95;;;3.80;99.90;;;;;;5094641;28;20207;-41
2021/01/04 07:36:18;;;;;;;28.85;22.65;;;3.80;99.90;;;;;;5094653;28;20263;-43
2021/01/04 07:38:59;;;;;;;30.25;23.20;;;3.80;99.90;;;;;;5094972;28;20305;-42
2021/01/04 07:41:41;;;;;;;33.97;25.90;;;3.80;99.90;;;;;;5094822;28;20297;-43
2021/01/04 07:44:27;;;;;;;30.17;23.97;;;3.80;99.90;;;;;;5094386;28;20894;-41
2021/01/04 07:47:17;;;;;;;33.70;27.48;;;3.70;99.90;;;;;;5094396;28;20305;-42
2021/01/04 07:50:37;;;;;;;30.70;25.13;;;3.60;99.90;;;;;;5081582;28;20242;-40
2021/01/04 07:53:35;;;;;;;31.92;24.45;;;3.60;99.90;;;;;;5093855;28;20496;-39
2021/01/04 07:56:36;;;;;;;64.38;56.72;;;3.60;99.90;;;;;;5094283;28;20257;-38
2021/01/04 07:59:42;;;;;;;31.33;26.90;;;3.60;99.90;;;;;;5094201;28;20718;-41
2021/01/04 08:02:35;;;;;;;34.50;25.43;;;3.60;99.90;;;;;;5093982;28;20635;-42
2021/01/04 08:05:32;;;;;;;33.80;26.38;;;3.60;99.90;;;;;;5093865;28;20265;-44
2021/01/04 08:08:27;;;;;;;34.03;24.55;;;3.50;99.90;;;;;;5093724;28;20697;-41
2021/01/04 08:11:26;;;;;;;37.17;28.95;;;3.60;99.90;;;;;;5093945;28;20333;-41
2021/01/04 08:14:20;;;;;;;35.53;25.17;;;3.50;99.90;;;;;;5094225;28;20238;-48
2021/01/04 08:16:51;;;;;;;34.30;27.98;;;3.60;99.90;;;;;;5093909;28;20573;-47
2021/01/04 08:19:20;;;;;;;33.30;24.47;;;3.70;99.90;;;;;;5093689;28;20305;-45
2021/01/04 08:21:56;;;;;;;35.83;26.52;;;3.70;99.90;;;;;;5093665;28;20674;-45
2021/01/04 08:24:30;;;;;;;35.95;25.88;;;3.70;99.90;;;;;;5093889;28;20299;-46
2021/01/04 08:27:10;;;;;;;36.17;27.00;;;3.70;99.90;;;;;;5093847;28;20275;-44
2021/01/04 08:29:45;;;;;;;36.83;25.27;;;3.60;99.90;;;;;;5093605;28;20238;-44
2021/01/04 08:32:20;;;;;;;38.17;27.17;;;3.50;99.90;;;;;;5093299;28;20735;-44
2021/01/04 08:34:48;;;;;;;36.87;26.57;;;3.50;99.90;;;;;;5093658;28;20305;-43
2021/01/04 08:37:18;;;;;;;36.17;26.17;;;3.60;99.90;;;;;;5093497;28;20210;-45
2021/01/04 08:39:48;;;;;;;34.60;24.33;;;3.60;99.90;;;;;;5093430;28;20297;-43
2021/01/04 08:42:32;;;;;;;37.03;24.03;;;3.70;99.90;;;;;;5093662;28;20301;-44
2021/01/04 08:45:05;;;;;;;35.23;25.50;;;3.80;99.90;;;;;;5093065;28;20218;-43
2021/01/04 08:47:40;;;;;;;35.03;26.67;;;3.80;99.90;;;;;;5093375;28;20295;-43
2021/01/04 08:50:29;;;;;;;39.85;27.35;;;3.70;99.90;;;;;;5093079;28;20206;-46
2021/01/04 08:53:08;;;;;;;33.65;24.23;;;3.60;99.90;;;;;;5093116;28;20299;-43
2021/01/04 08:55:35;;;;;;;34.63;24.20;;;3.50;99.90;;;;;;5093182;28;20296;-43
2021/01/04 08:58:29;;;;;;;29.13;22.67;;;3.50;99.90;;;;;;5092886;28;20207;-44
2021/01/04 09:01:01;;;;;;;33.47;24.20;;;3.50;99.90;;;;;;5090441;28;20309;-44
2021/01/04 09:03:31;;;;;;;36.30;24.42;;;3.60;99.90;;;;;;5092587;28;20245;-45
2021/01/04 09:06:23;;;;;;;36.67;25.33;;;3.60;99.90;;;;;;5093097;28;20551;-43
2021/01/04 09:08:55;;;;;;;39.37;28.63;;;3.60;99.90;;;;;;5092722;28;20306;-43
2021/01/04 09:11:23;;;;;;;38.40;25.85;;;3.60;99.90;;;;;;5092542;28;20262;-43
2021/01/04 09:13:51;;;;;;;41.20;26.73;;;3.60;99.90;;;;;;5092774;28;20565;-45
2021/01/04 09:16:30;;;;;;;38.65;26.35;;;3.60;99.90;;;;;;5092568;28;20256;-44
2021/01/04 09:19:08;;;;;;;37.60;26.27;;;3.60;99.90;;;;;;5092656;28;20202;-46
2021/01/04 09:21:39;;;;;;;37.80;26.33;;;3.40;99.90;;;;;;5092815;28;20286;-42
2021/01/04 09:24:14;;;;;;;37.87;26.40;;;3.40;99.90;;;;;;5092651;28;20223;-42
2021/01/04 09:26:43;;;;;;;38.73;26.73;;;3.30;99.90;;;;;;5092513;28;20313;-42
2021/01/04 09:29:30;;;;;;;36.47;25.37;;;3.20;99.90;;;;;;5092694;28;20301;-45
2021/01/04 09:32:09;;;;;;;34.13;24.75;;;3.10;99.90;;;;;;5092189;28;20563;-48
2021/01/04 09:34:36;;;;;;;37.75;24.75;;;3.10;99.90;;;;;;5092480;28;20208;-46
2021/01/04 09:37:06;;;;;;;37.45;24.55;;;3.00;99.90;;;;;;5092124;28;20676;-45
2021/01/04 09:39:35;;;;;;;35.90;23.97;;;3.00;99.90;;;;;;5092857;28;20563;-45
2021/01/04 09:42:05;;;;;;;32.88;23.25;;;3.00;99.90;;;;;;5092521;28;20600;-45
2021/01/04 09:44:33;;;;;;;33.10;24.23;;;3.00;99.90;;;;;;5092026;28;20271;-46
2021/01/04 09:47:04;;;;;;;37.87;24.90;;;2.90;99.90;;;;;;5092207;28;20237;-48
2021/01/04 09:49:37;;;;;;;34.22;22.85;;;2.90;99.90;;;;;;5092263;28;20257;-48
2021/01/04 09:52:08;;;;;;;35.30;23.33;;;2.90;99.90;;;;;;5092119;28;20225;-47
2021/01/04 09:54:40;;;;;;;34.60;24.20;;;3.00;99.90;;;;;;5092189;28;20218;-44
2021/01/04 09:57:08;;;;;;;33.93;24.10;;;3.10;99.90;;;;;;5092161;28;20215;-43
2021/01/04 09:59:42;;;;;;;31.73;22.90;;;3.10;99.90;;;;;;5092027;28;20289;-44
2021/01/04 10:02:18;;;;;;;35.77;23.60;;;3.10;99.90;;;;;;5090973;28;20246;-43
2021/01/04 10:04:45;;;;;;;32.70;23.20;;;3.00;99.90;;;;;;5091748;28;20236;-42
2021/01/04 10:07:18;;;;;;;33.50;22.23;;;3.10;99.90;;;;;;5091780;28;20221;-43
2021/01/04 10:09:48;;;;;;;29.40;21.63;;;3.10;99.90;;;;;;5091699;28;20319;-42
2021/01/04 10:12:18;;;;;;;31.83;22.50;;;3.20;99.90;;;;;;5091518;28;20281;-42
2021/01/04 10:14:59;;;;;;;30.00;22.07;;;3.30;99.90;;;;;;5092028;28;20203;-46
2021/01/04 10:17:35;;;;;;;30.85;21.58;;;3.40;99.90;;;;;;5091749;28;20215;-43
2021/01/04 10:20:15;;;;;;;32.77;22.03;;;3.50;99.90;;;;;;5091712;28;20664;-42
2021/01/04 10:22:47;;;;;;;30.17;21.27;;;3.50;99.90;;;;;;5091749;28;20247;-42
2021/01/04 10:25:22;;;;;;;31.33;22.40;;;3.50;99.90;;;;;;5091604;28;20717;-42
2021/01/04 10:27:52;;;;;;;30.57;21.77;;;3.50;99.90;;;;;;5091894;28;20210;-44
2021/01/04 10:30:26;;;;;;;30.53;22.17;;;3.40;99.90;;;;;;5091697;28;20217;-42
2021/01/04 10:33:04;;;;;;;30.80;21.13;;;3.30;99.90;;;;;;5091678;28;20210;-44
2021/01/04 10:35:31;;;;;;;31.33;21.43;;;3.30;99.90;;;;;;5091623;28;20695;-42
2021/01/04 10:38:09;;;;;;;30.13;21.00;;;3.20;99.90;;;;;;5091403;28;20217;-42
2021/01/04 10:40:45;;;;;;;33.22;20.73;;;3.10;99.90;;;;;;5091567;28;20302;-42
2021/01/04 10:43:18;;;;;;;31.13;21.37;;;3.10;99.90;;;;;;5091459;28;20289;-42
2021/01/04 10:46:19;;;;;;;30.13;20.70;;;3.00;99.90;;;;;;5095591;28;20580;-42
2021/01/04 10:48:58;;;;;;;30.90;21.33;;;3.00;99.90;;;;;;5095393;28;20581;-43
2021/01/04 10:51:27;;;;;;;29.77;21.17;;;3.00;99.90;;;;;;5095937;28;20210;-43
2021/01/04 10:53:54;;;;;;;29.42;20.80;;;3.00;99.90;;;;;;5095539;28;20210;-45
2021/01/04 10:56:44;;;;;;;32.27;21.10;;;3.00;99.90;;;;;;5095285;28;20206;-41
2021/01/04 10:59:28;;;;;;;32.38;21.80;;;2.90;99.90;;;;;;5095366;28;20306;-44
2021/01/04 11:01:57;;;;;;;29.85;21.27;;;2.90;99.90;;;;;;5095257;28;20228;-42
2021/01/04 11:04:25;;;;;;;29.53;21.70;;;2.90;99.90;;;;;;5094933;28;20310;-44
2021/01/04 11:07:18;;;;;;;28.93;21.17;;;2.90;99.90;;;;;;5095268;28;20313;-42
2021/01/04 11:09:46;;;;;;;28.93;19.43;;;2.90;99.90;;;;;;5081179;28;20297;-41
2021/01/04 11:12:16;;;;;;;27.17;20.20;;;2.90;99.90;;;;;;5094823;28;20250;-40
2021/01/04 11:14:54;;;;;;;27.80;20.03;;;3.00;99.90;;;;;;5094717;28;20684;-40
2021/01/04 11:17:26;;;;;;;29.27;20.83;;;3.00;99.90;;;;;;5094622;28;20608;-39
2021/01/04 11:19:53;;;;;;;28.58;21.10;;;3.00;99.90;;;;;;5094768;28;20202;-40
2021/01/04 11:22:26;;;;;;;28.53;20.63;;;3.00;99.90;;;;;;5094506;28;20242;-41
2021/01/04 11:24:55;;;;;;;26.90;20.90;;;3.10;99.90;;;;;;5094434;28;20226;-41
2021/01/04 11:27:23;;;;;;;28.75;19.92;;;3.10;99.90;;;;;;5094485;28;20661;-41
2021/01/04 11:29:51;;;;;;;34.70;21.67;;;3.10;99.90;;;;;;5094816;28;20210;-43
2021/01/04 11:32:19;;;;;;;29.90;21.03;;;3.10;99.90;;;;;;5094708;28;20234;-41
2021/01/04 11:34:49;;;;;;;33.33;20.97;;;3.10;99.90;;;;;;5094287;28;20245;-41
2021/01/04 11:37:18;;;;;;;28.93;20.50;;;3.20;99.90;;;;;;5094151;28;20210;-41
2021/01/04 11:39:49;;;;;;;29.42;19.95;;;3.30;99.90;;;;;;5094242;28;20210;-41
2021/01/04 11:42:16;;;;;;;29.23;20.47;;;3.30;99.90;;;;;;5094460;28;20314;-40
2021/01/04 11:44:43;;;;;;;29.23;21.23;;;3.30;99.90;;;;;;5094307;28;20231;-41
2021/01/04 11:47:10;;;;;;;29.08;20.77;;;3.40;99.90;;;;;;5094366;28;20259;-40
2021/01/04 11:49:37;;;;;;;29.73;20.63;;;3.50;99.90;;;;;;5094248;28;20206;-41
2021/01/04 11:52:05;;;;;;;25.92;19.80;;;3.40;99.90;;;;;;5093991;28;20298;-40
2021/01/04 11:54:32;;;;;;;32.78;20.42;;;3.40;99.90;;;;;;5093676;28;20291;-41
2021/01/04 11:56:59;;;;;;;32.20;21.87;;;3.40;99.90;;;;;;5093684;28;20310;-40
2021/01/04 11:59:26;;;;;;;30.93;21.03;;;3.40;99.90;;;;;;5093955;28;20348;-41
2021/01/04 12:01:54;;;;;;;25.85;20.33;;;3.40;99.90;;;;;;5093835;28;20210;-41
2021/01/04 12:04:22;;;;;;;30.08;20.48;;;3.30;99.80;;;;;;5093478;28;20223;-44
2021/01/04 12:06:50;;;;;;;42.53;31.42;;;3.30;99.90;;;;;;5093408;28;20297;-41
2021/01/04 12:09:18;;;;;;;47.23;38.97;;;3.20;99.90;;;;;;5093666;28;20206;-40
2021/01/04 12:11:47;;;;;;;105.13;93.87;;;3.20;99.90;;;;;;5093524;28;20238;-41
2021/01/04 12:14:16;;;;;;;32.63;25.47;;;3.10;99.90;;;;;;5093858;28;20533;-40
2021/01/04 12:16:43;;;;;;;33.15;25.90;;;3.00;99.90;;;;;;5093484;28;20297;-39
2021/01/04 12:19:11;;;;;;;49.60;37.75;;;3.00;99.90;;;;;;5093201;28;20246;-38
2021/01/04 12:21:38;;;;;;;34.55;22.75;;;3.00;99.90;;;;;;5093162;28;20294;-39
2021/01/04 12:24:05;;;;;;;31.23;23.07;;;3.00;99.90;;;;;;5093251;28;20338;-41
2021/01/04 12:26:33;;;;;;;33.63;22.70;;;2.90;99.90;;;;;;5093114;28;20207;-40
2021/01/04 12:29:01;;;;;;;31.70;22.97;;;2.80;99.90;;;;;;5093065;28;20672;-39
2021/01/04 12:31:28;;;;;;;35.90;26.02;;;2.80;99.90;;;;;;5093292;28;20283;-39
2021/01/04 12:33:55;;;;;;;29.27;20.88;;;2.80;99.90;;;;;;5093100;28;20294;-37
2021/01/04 12:36:26;;;;;;;29.40;21.77;;;2.90;99.90;;;;;;5093476;28;20238;-44
2021/01/04 12:38:54;;;;;;;30.85;22.25;;;2.90;99.90;;;;;;5093274;28;20573;-39
2021/01/04 12:41:22;;;;;;;32.55;22.92;;;3.10;99.90;;;;;;5093286;28;20203;-39
2021/01/04 12:43:49;;;;;;;33.67;23.92;;;3.20;99.90;;;;;;5092904;28;20315;-37
2021/01/04 12:46:17;;;;;;;37.03;23.97;;;3.10;99.90;;;;;;5093133;28;20276;-40
2021/01/04 12:48:45;;;;;;;35.30;25.90;;;3.10;99.90;;;;;;5092968;28;20546;-40
2021/01/04 12:51:14;;;;;;;38.60;25.55;;;3.20;99.90;;;;;;5093247;28;20285;-40
2021/01/04 12:53:42;;;;;;;35.78;24.58;;;3.10;99.90;;;;;;5092820;28;20238;-40
2021/01/04 12:56:10;;;;;;;39.25;25.98;;;3.20;99.90;;;;;;5092836;28;20230;-39
2021/01/04 12:58:42;;;;;;;33.72;24.05;;;3.20;99.90;;;;;;5092795;28;20207;-40
2021/01/04 13:01:10;;;;;;;35.13;23.92;;;3.20;99.90;;;;;;5092695;28;20279;-40
2021/01/04 13:03:45;;;;;;;33.65;22.95;;;3.30;99.90;;;;;;5093208;28;20210;-42
2021/01/04 13:06:19;;;;;;;34.55;23.50;;;3.30;99.90;;;;;;5092394;28;20234;-39
2021/01/04 13:08:46;;;;;;;35.20;23.67;;;3.40;99.90;;;;;;5092353;28;20296;-40
2021/01/04 13:11:13;;;;;;;33.00;23.33;;;3.40;99.90;;;;;;5092747;28;20590;-40
2021/01/04 13:13:40;;;;;;;35.43;24.03;;;3.40;99.90;;;;;;5092778;28;20207;-39
2021/01/04 13:16:07;;;;;;;37.83;24.30;;;3.30;99.90;;;;;;5092610;28;20224;-39
2021/01/04 13:18:35;;;;;;;34.78;24.48;;;3.20;99.90;;;;;;5092557;28;20294;-39
2021/01/04 13:21:02;;;;;;;34.83;24.43;;;3.10;99.90;;;;;;5092710;28;20545;-40